sensor_id;sensor_type;location;lat;lon;timestamp;P1;durP1;ratioP1;P2;durP2;ratioP2
15938;SDS011;8068;51.322;9.450;2022-12-18T00:01:23;20.73;;;11.33;;
15938;SDS011;8068;51.322;9.450;2022-12-18T00:03:51;18.40;;;11.47;;
15938;SDS011;8068;51.322;9.450;2022-12-18T00:06:18;17.70;;;11.10;;
15938;SDS011;8068;51.322;9.450;2022-12-18T00:08:45;16.60;;;10.50;;
15938;SDS011;8068;51.322;9.450;2022-12-18T00:11:16;18.07;;;10.83;;
15938;SDS011;8068;51.322;9.450;2022-12-18T00:13:43;16.83;;;10.20;;
15938;SDS011;8068;51.322;9.450;2022-12-18T00:16:11;18.13;;;10.00;;
15938;SDS011;8068;51.322;9.450;2022-12-18T00:18:40;20.70;;;10.40;;
15938;SDS011;8068;51.322;9.450;2022-12-18T00:21:08;18.60;;;10.87;;
15938;SDS011;8068;51.322;9.450;2022-12-18T00:23:36;19.33;;;11.97;;
15938;SDS011;8068;51.322;9.450;2022-12-18T00:26:04;20.00;;;11.40;;
15938;SDS011;8068;51.322;9.450;2022-12-18T00:28:31;17.20;;;10.77;;
15938;SDS011;8068;51.322;9.450;2022-12-18T00:31:01;17.50;;;11.30;;
15938;SDS011;8068;51.322;9.450;2022-12-18T00:33:28;18.10;;;10.70;;
15938;SDS011;8068;51.322;9.450;2022-12-18T00:35:54;16.53;;;10.80;;
15938;SDS011;8068;51.322;9.450;2022-12-18T00:38:20;13.57;;;9.83;;
15938;SDS011;8068;51.322;9.450;2022-12-18T00:40:46;16.27;;;10.60;;
15938;SDS011;8068;51.322;9.450;2022-12-18T00:43:12;12.43;;;7.80;;
15938;SDS011;8068;51.322;9.450;2022-12-18T00:45:38;15.77;;;10.33;;
15938;SDS011;8068;51.322;9.450;2022-12-18T00:48:04;15.00;;;9.80;;
15938;SDS011;8068;51.322;9.450;2022-12-18T00:50:30;15.63;;;10.03;;
15938;SDS011;8068;51.322;9.450;2022-12-18T00:52:57;16.17;;;9.70;;
15938;SDS011;8068;51.322;9.450;2022-12-18T00:55:23;16.60;;;9.67;;
15938;SDS011;8068;51.322;9.450;2022-12-18T00:57:50;14.00;;;9.87;;
15938;SDS011;8068;51.322;9.450;2022-12-18T01:00:17;12.23;;;9.53;;
15938;SDS011;8068;51.322;9.450;2022-12-18T01:02:44;13.30;;;9.00;;
15938;SDS011;8068;51.322;9.450;2022-12-18T01:05:10;14.80;;;9.33;;
15938;SDS011;8068;51.322;9.450;2022-12-18T01:07:38;16.17;;;9.10;;
15938;SDS011;8068;51.322;9.450;2022-12-18T01:10:04;15.37;;;10.23;;
15938;SDS011;8068;51.322;9.450;2022-12-18T01:12:31;10.23;;;8.37;;
15938;SDS011;8068;51.322;9.450;2022-12-18T01:14:57;13.37;;;9.40;;
15938;SDS011;8068;51.322;9.450;2022-12-18T01:17:23;11.67;;;8.70;;
15938;SDS011;8068;51.322;9.450;2022-12-18T01:19:49;9.70;;;8.57;;
15938;SDS011;8068;51.322;9.450;2022-12-18T01:22:16;13.90;;;9.20;;
15938;SDS011;8068;51.322;9.450;2022-12-18T01:24:42;14.03;;;9.50;;
15938;SDS011;8068;51.322;9.450;2022-12-18T01:27:08;12.87;;;9.07;;
15938;SDS011;8068;51.322;9.450;2022-12-18T01:29:34;15.20;;;9.60;;
15938;SDS011;8068;51.322;9.450;2022-12-18T01:32:00;15.30;;;9.27;;
15938;SDS011;8068;51.322;9.450;2022-12-18T01:34:26;11.70;;;9.20;;
15938;SDS011;8068;51.322;9.450;2022-12-18T01:36:52;14.93;;;9.00;;
15938;SDS011;8068;51.322;9.450;2022-12-18T01:39:18;13.33;;;9.47;;
15938;SDS011;8068;51.322;9.450;2022-12-18T01:41:45;15.30;;;9.87;;
15938;SDS011;8068;51.322;9.450;2022-12-18T01:47:34;16.27;;;9.37;;
15938;SDS011;8068;51.322;9.450;2022-12-18T01:50:11;16.40;;;9.90;;
15938;SDS011;8068;51.322;9.450;2022-12-18T01:52:38;14.90;;;8.30;;
15938;SDS011;8068;51.322;9.450;2022-12-18T01:55:07;15.10;;;8.80;;
15938;SDS011;8068;51.322;9.450;2022-12-18T01:57:34;13.97;;;9.03;;
15938;SDS011;8068;51.322;9.450;2022-12-18T02:00:01;15.03;;;9.53;;
15938;SDS011;8068;51.322;9.450;2022-12-18T02:02:33;16.53;;;9.80;;
15938;SDS011;8068;51.322;9.450;2022-12-18T02:04:59;16.63;;;9.60;;
15938;SDS011;8068;51.322;9.450;2022-12-18T02:07:29;15.00;;;9.83;;
15938;SDS011;8068;51.322;9.450;2022-12-18T02:13:03;15.50;;;9.40;;
15938;SDS011;8068;51.322;9.450;2022-12-18T02:18:33;12.73;;;9.10;;
15938;SDS011;8068;51.322;9.450;2022-12-18T02:21:20;15.80;;;9.63;;
15938;SDS011;8068;51.322;9.450;2022-12-18T02:24:04;17.90;;;10.30;;
15938;SDS011;8068;51.322;9.450;2022-12-18T02:26:36;16.00;;;10.10;;
15938;SDS011;8068;51.322;9.450;2022-12-18T02:29:05;12.07;;;9.70;;
15938;SDS011;8068;51.322;9.450;2022-12-18T02:31:36;16.30;;;9.80;;
15938;SDS011;8068;51.322;9.450;2022-12-18T02:34:06;17.53;;;9.33;;
15938;SDS011;8068;51.322;9.450;2022-12-18T02:36:33;17.80;;;10.10;;
15938;SDS011;8068;51.322;9.450;2022-12-18T02:39:02;17.10;;;9.90;;
15938;SDS011;8068;51.322;9.450;2022-12-18T02:41:28;13.83;;;9.93;;
15938;SDS011;8068;51.322;9.450;2022-12-18T02:43:57;18.30;;;10.43;;
15938;SDS011;8068;51.322;9.450;2022-12-18T02:46:37;14.23;;;10.00;;
15938;SDS011;8068;51.322;9.450;2022-12-18T02:51:40;20.43;;;10.87;;
15938;SDS011;8068;51.322;9.450;2022-12-18T02:54:17;14.80;;;9.63;;
15938;SDS011;8068;51.322;9.450;2022-12-18T02:57:12;14.57;;;10.07;;
15938;SDS011;8068;51.322;9.450;2022-12-18T02:59:48;17.70;;;10.10;;
15938;SDS011;8068;51.322;9.450;2022-12-18T03:02:56;16.60;;;10.83;;
15938;SDS011;8068;51.322;9.450;2022-12-18T03:05:18;17.50;;;10.10;;
15938;SDS011;8068;51.322;9.450;2022-12-18T03:07:53;15.20;;;9.57;;
15938;SDS011;8068;51.322;9.450;2022-12-18T03:10:26;15.30;;;9.70;;
15938;SDS011;8068;51.322;9.450;2022-12-18T03:12:57;16.83;;;10.10;;
15938;SDS011;8068;51.322;9.450;2022-12-18T03:15:29;15.27;;;9.30;;
15938;SDS011;8068;51.322;9.450;2022-12-18T03:17:59;19.00;;;9.83;;
15938;SDS011;8068;51.322;9.450;2022-12-18T03:20:31;15.70;;;9.27;;
15938;SDS011;8068;51.322;9.450;2022-12-18T03:22:59;14.73;;;8.73;;
15938;SDS011;8068;51.322;9.450;2022-12-18T03:25:30;12.90;;;9.13;;
15938;SDS011;8068;51.322;9.450;2022-12-18T03:27:58;16.97;;;9.10;;
15938;SDS011;8068;51.322;9.450;2022-12-18T03:30:26;9.43;;;7.93;;
15938;SDS011;8068;51.322;9.450;2022-12-18T03:32:56;14.47;;;9.53;;
15938;SDS011;8068;51.322;9.450;2022-12-18T03:35:29;15.87;;;10.33;;
15938;SDS011;8068;51.322;9.450;2022-12-18T03:37:57;12.40;;;8.50;;
15938;SDS011;8068;51.322;9.450;2022-12-18T03:40:25;11.47;;;8.77;;
15938;SDS011;8068;51.322;9.450;2022-12-18T03:42:57;12.53;;;8.60;;
15938;SDS011;8068;51.322;9.450;2022-12-18T03:45:38;12.70;;;8.80;;
15938;SDS011;8068;51.322;9.450;2022-12-18T03:48:19;13.10;;;9.37;;
15938;SDS011;8068;51.322;9.450;2022-12-18T03:51:08;15.10;;;9.90;;
15938;SDS011;8068;51.322;9.450;2022-12-18T03:53:39;13.97;;;9.07;;
15938;SDS011;8068;51.322;9.450;2022-12-18T03:56:10;14.90;;;8.97;;
15938;SDS011;8068;51.322;9.450;2022-12-18T03:58:37;16.30;;;9.80;;
15938;SDS011;8068;51.322;9.450;2022-12-18T04:01:05;13.10;;;8.30;;
15938;SDS011;8068;51.322;9.450;2022-12-18T04:03:33;14.10;;;9.03;;
15938;SDS011;8068;51.322;9.450;2022-12-18T04:06:02;11.90;;;7.83;;
15938;SDS011;8068;51.322;9.450;2022-12-18T04:08:28;14.57;;;8.97;;
15938;SDS011;8068;51.322;9.450;2022-12-18T04:10:55;12.50;;;8.30;;
15938;SDS011;8068;51.322;9.450;2022-12-18T04:13:21;14.57;;;8.17;;
15938;SDS011;8068;51.322;9.450;2022-12-18T04:15:48;15.37;;;9.43;;
15938;SDS011;8068;51.322;9.450;2022-12-18T04:18:15;12.57;;;9.30;;
15938;SDS011;8068;51.322;9.450;2022-12-18T04:20:41;14.20;;;9.00;;
15938;SDS011;8068;51.322;9.450;2022-12-18T04:23:07;13.50;;;8.60;;
15938;SDS011;8068;51.322;9.450;2022-12-18T04:25:33;10.33;;;8.43;;
15938;SDS011;8068;51.322;9.450;2022-12-18T04:27:59;12.70;;;8.60;;
15938;SDS011;8068;51.322;9.450;2022-12-18T04:30:25;12.90;;;9.23;;
15938;SDS011;8068;51.322;9.450;2022-12-18T04:32:51;17.30;;;8.33;;
15938;SDS011;8068;51.322;9.450;2022-12-18T04:35:17;10.67;;;8.50;;
15938;SDS011;8068;51.322;9.450;2022-12-18T04:37:44;10.00;;;8.63;;
15938;SDS011;8068;51.322;9.450;2022-12-18T04:40:10;13.10;;;8.93;;
15938;SDS011;8068;51.322;9.450;2022-12-18T04:42:36;15.83;;;9.40;;
15938;SDS011;8068;51.322;9.450;2022-12-18T04:45:03;12.30;;;8.93;;
15938;SDS011;8068;51.322;9.450;2022-12-18T04:47:29;11.30;;;8.67;;
15938;SDS011;8068;51.322;9.450;2022-12-18T04:49:56;14.60;;;9.47;;
15938;SDS011;8068;51.322;9.450;2022-12-18T04:52:22;13.37;;;9.00;;
15938;SDS011;8068;51.322;9.450;2022-12-18T04:54:51;12.77;;;8.80;;
15938;SDS011;8068;51.322;9.450;2022-12-18T04:57:17;13.77;;;9.30;;
15938;SDS011;8068;51.322;9.450;2022-12-18T04:59:46;13.70;;;8.60;;
15938;SDS011;8068;51.322;9.450;2022-12-18T05:02:12;14.70;;;8.80;;
15938;SDS011;8068;51.322;9.450;2022-12-18T05:04:38;11.00;;;7.90;;
15938;SDS011;8068;51.322;9.450;2022-12-18T05:07:04;13.37;;;9.03;;
15938;SDS011;8068;51.322;9.450;2022-12-18T05:09:30;14.10;;;9.40;;
15938;SDS011;8068;51.322;9.450;2022-12-18T05:11:57;14.43;;;9.33;;
15938;SDS011;8068;51.322;9.450;2022-12-18T05:14:23;13.20;;;8.63;;
15938;SDS011;8068;51.322;9.450;2022-12-18T05:16:49;12.47;;;9.00;;
15938;SDS011;8068;51.322;9.450;2022-12-18T05:19:15;11.07;;;8.40;;
15938;SDS011;8068;51.322;9.450;2022-12-18T05:21:41;14.93;;;10.03;;
15938;SDS011;8068;51.322;9.450;2022-12-18T05:24:07;13.53;;;9.10;;
15938;SDS011;8068;51.322;9.450;2022-12-18T05:26:33;12.37;;;8.37;;
15938;SDS011;8068;51.322;9.450;2022-12-18T05:28:59;16.80;;;8.70;;
15938;SDS011;8068;51.322;9.450;2022-12-18T05:31:26;13.13;;;8.50;;
15938;SDS011;8068;51.322;9.450;2022-12-18T05:33:52;12.23;;;8.17;;
15938;SDS011;8068;51.322;9.450;2022-12-18T05:36:18;9.87;;;7.90;;
15938;SDS011;8068;51.322;9.450;2022-12-18T05:38:44;15.13;;;9.00;;
15938;SDS011;8068;51.322;9.450;2022-12-18T05:41:10;13.83;;;9.43;;
15938;SDS011;8068;51.322;9.450;2022-12-18T05:43:37;14.53;;;9.13;;
15938;SDS011;8068;51.322;9.450;2022-12-18T05:46:05;14.60;;;9.03;;
15938;SDS011;8068;51.322;9.450;2022-12-18T05:48:33;17.97;;;9.70;;
15938;SDS011;8068;51.322;9.450;2022-12-18T05:51:06;13.43;;;9.10;;
15938;SDS011;8068;51.322;9.450;2022-12-18T05:53:33;17.33;;;9.40;;
15938;SDS011;8068;51.322;9.450;2022-12-18T05:56:01;12.20;;;8.77;;
15938;SDS011;8068;51.322;9.450;2022-12-18T05:58:31;12.50;;;8.60;;
15938;SDS011;8068;51.322;9.450;2022-12-18T06:00:57;15.57;;;9.00;;
15938;SDS011;8068;51.322;9.450;2022-12-18T06:03:24;14.93;;;8.53;;
15938;SDS011;8068;51.322;9.450;2022-12-18T06:05:57;10.97;;;8.43;;
15938;SDS011;8068;51.322;9.450;2022-12-18T06:08:23;14.10;;;9.60;;
15938;SDS011;8068;51.322;9.450;2022-12-18T06:10:50;13.83;;;9.40;;
15938;SDS011;8068;51.322;9.450;2022-12-18T06:13:18;12.00;;;8.40;;
15938;SDS011;8068;51.322;9.450;2022-12-18T06:15:45;12.90;;;9.00;;
15938;SDS011;8068;51.322;9.450;2022-12-18T06:18:11;11.67;;;8.40;;
15938;SDS011;8068;51.322;9.450;2022-12-18T06:20:37;13.77;;;8.37;;
15938;SDS011;8068;51.322;9.450;2022-12-18T06:23:05;12.50;;;8.73;;
15938;SDS011;8068;51.322;9.450;2022-12-18T06:25:32;15.50;;;8.80;;
15938;SDS011;8068;51.322;9.450;2022-12-18T06:27:58;11.53;;;8.07;;
15938;SDS011;8068;51.322;9.450;2022-12-18T06:30:24;14.60;;;8.73;;
15938;SDS011;8068;51.322;9.450;2022-12-18T06:32:50;13.30;;;9.10;;
15938;SDS011;8068;51.322;9.450;2022-12-18T06:35:22;10.97;;;8.33;;
15938;SDS011;8068;51.322;9.450;2022-12-18T06:37:48;15.03;;;8.80;;
15938;SDS011;8068;51.322;9.450;2022-12-18T06:40:14;16.63;;;9.33;;
15938;SDS011;8068;51.322;9.450;2022-12-18T06:42:40;14.00;;;8.97;;
15938;SDS011;8068;51.322;9.450;2022-12-18T06:45:07;13.43;;;8.50;;
15938;SDS011;8068;51.322;9.450;2022-12-18T06:47:33;17.23;;;9.10;;
15938;SDS011;8068;51.322;9.450;2022-12-18T06:49:59;12.60;;;8.90;;
15938;SDS011;8068;51.322;9.450;2022-12-18T06:52:26;11.50;;;9.00;;
15938;SDS011;8068;51.322;9.450;2022-12-18T06:54:52;15.33;;;9.83;;
15938;SDS011;8068;51.322;9.450;2022-12-18T06:57:18;13.87;;;9.27;;
15938;SDS011;8068;51.322;9.450;2022-12-18T06:59:44;15.90;;;9.50;;
15938;SDS011;8068;51.322;9.450;2022-12-18T07:02:11;13.97;;;9.97;;
15938;SDS011;8068;51.322;9.450;2022-12-18T07:04:38;12.53;;;9.70;;
15938;SDS011;8068;51.322;9.450;2022-12-18T07:07:04;18.03;;;10.70;;
15938;SDS011;8068;51.322;9.450;2022-12-18T07:09:30;13.67;;;9.57;;
15938;SDS011;8068;51.322;9.450;2022-12-18T07:11:56;17.70;;;10.20;;
15938;SDS011;8068;51.322;9.450;2022-12-18T07:14:23;15.53;;;9.60;;
15938;SDS011;8068;51.322;9.450;2022-12-18T07:16:49;15.23;;;10.13;;
15938;SDS011;8068;51.322;9.450;2022-12-18T07:19:15;18.33;;;9.83;;
15938;SDS011;8068;51.322;9.450;2022-12-18T07:21:41;13.60;;;9.67;;
15938;SDS011;8068;51.322;9.450;2022-12-18T07:24:07;13.70;;;9.13;;
15938;SDS011;8068;51.322;9.450;2022-12-18T07:26:33;12.50;;;9.00;;
15938;SDS011;8068;51.322;9.450;2022-12-18T07:28:59;12.67;;;8.43;;
15938;SDS011;8068;51.322;9.450;2022-12-18T07:31:26;16.70;;;9.80;;
15938;SDS011;8068;51.322;9.450;2022-12-18T07:33:53;12.60;;;9.00;;
15938;SDS011;8068;51.322;9.450;2022-12-18T07:36:19;16.43;;;10.10;;
15938;SDS011;8068;51.322;9.450;2022-12-18T07:38:49;12.27;;;8.43;;
15938;SDS011;8068;51.322;9.450;2022-12-18T07:41:15;16.30;;;9.63;;
15938;SDS011;8068;51.322;9.450;2022-12-18T07:43:42;19.67;;;11.90;;
15938;SDS011;8068;51.322;9.450;2022-12-18T07:46:09;15.60;;;11.80;;
15938;SDS011;8068;51.322;9.450;2022-12-18T07:48:37;17.00;;;11.17;;
15938;SDS011;8068;51.322;9.450;2022-12-18T07:51:04;19.10;;;11.17;;
15938;SDS011;8068;51.322;9.450;2022-12-18T07:53:31;20.60;;;11.47;;
15938;SDS011;8068;51.322;9.450;2022-12-18T07:56:03;22.97;;;13.57;;
15938;SDS011;8068;51.322;9.450;2022-12-18T07:58:51;22.07;;;12.53;;
15938;SDS011;8068;51.322;9.450;2022-12-18T08:01:17;29.47;;;15.73;;
15938;SDS011;8068;51.322;9.450;2022-12-18T08:03:43;20.67;;;12.43;;
15938;SDS011;8068;51.322;9.450;2022-12-18T08:06:10;20.03;;;12.63;;
15938;SDS011;8068;51.322;9.450;2022-12-18T08:08:36;19.17;;;12.10;;
15938;SDS011;8068;51.322;9.450;2022-12-18T08:11:02;21.27;;;11.90;;
15938;SDS011;8068;51.322;9.450;2022-12-18T08:13:29;23.03;;;12.10;;
15938;SDS011;8068;51.322;9.450;2022-12-18T08:15:58;24.10;;;12.53;;
15938;SDS011;8068;51.322;9.450;2022-12-18T08:18:26;18.98;;;11.77;;
15938;SDS011;8068;51.322;9.450;2022-12-18T08:20:52;14.40;;;10.47;;
15938;SDS011;8068;51.322;9.450;2022-12-18T08:23:18;18.97;;;11.77;;
15938;SDS011;8068;51.322;9.450;2022-12-18T08:25:45;19.43;;;12.10;;
15938;SDS011;8068;51.322;9.450;2022-12-18T08:28:11;19.97;;;11.67;;
15938;SDS011;8068;51.322;9.450;2022-12-18T08:30:37;20.17;;;11.67;;
15938;SDS011;8068;51.322;9.450;2022-12-18T08:33:04;16.23;;;11.10;;
15938;SDS011;8068;51.322;9.450;2022-12-18T08:35:34;20.07;;;12.17;;
15938;SDS011;8068;51.322;9.450;2022-12-18T08:38:06;13.73;;;10.03;;
15938;SDS011;8068;51.322;9.450;2022-12-18T08:40:32;19.03;;;10.60;;
15938;SDS011;8068;51.322;9.450;2022-12-18T08:42:58;16.30;;;10.43;;
15938;SDS011;8068;51.322;9.450;2022-12-18T08:45:43;14.40;;;10.50;;
15938;SDS011;8068;51.322;9.450;2022-12-18T08:48:09;17.20;;;10.83;;
15938;SDS011;8068;51.322;9.450;2022-12-18T08:50:35;14.17;;;10.07;;
15938;SDS011;8068;51.322;9.450;2022-12-18T08:53:01;15.87;;;10.80;;
15938;SDS011;8068;51.322;9.450;2022-12-18T08:55:28;14.50;;;9.97;;
15938;SDS011;8068;51.322;9.450;2022-12-18T08:57:54;19.40;;;10.60;;
15938;SDS011;8068;51.322;9.450;2022-12-18T09:00:20;25.60;;;16.53;;
15938;SDS011;8068;51.322;9.450;2022-12-18T09:02:46;20.70;;;13.27;;
15938;SDS011;8068;51.322;9.450;2022-12-18T09:05:12;23.03;;;12.73;;
15938;SDS011;8068;51.322;9.450;2022-12-18T09:07:39;20.13;;;12.27;;
15938;SDS011;8068;51.322;9.450;2022-12-18T09:10:05;19.60;;;12.20;;
15938;SDS011;8068;51.322;9.450;2022-12-18T09:12:31;16.20;;;11.33;;
15938;SDS011;8068;51.322;9.450;2022-12-18T09:14:57;16.53;;;9.37;;
15938;SDS011;8068;51.322;9.450;2022-12-18T09:17:24;17.47;;;10.40;;
15938;SDS011;8068;51.322;9.450;2022-12-18T09:19:50;14.27;;;9.80;;
15938;SDS011;8068;51.322;9.450;2022-12-18T09:22:16;17.07;;;10.77;;
15938;SDS011;8068;51.322;9.450;2022-12-18T09:24:42;17.13;;;11.23;;
15938;SDS011;8068;51.322;9.450;2022-12-18T09:27:08;15.87;;;9.70;;
15938;SDS011;8068;51.322;9.450;2022-12-18T09:29:34;15.93;;;10.60;;
15938;SDS011;8068;51.322;9.450;2022-12-18T09:32:00;16.87;;;10.90;;
15938;SDS011;8068;51.322;9.450;2022-12-18T09:34:26;18.03;;;10.83;;
15938;SDS011;8068;51.322;9.450;2022-12-18T09:36:52;14.00;;;9.73;;
15938;SDS011;8068;51.322;9.450;2022-12-18T09:39:18;18.10;;;10.47;;
15938;SDS011;8068;51.322;9.450;2022-12-18T09:41:56;14.90;;;9.70;;
15938;SDS011;8068;51.322;9.450;2022-12-18T09:44:29;15.77;;;10.10;;
15938;SDS011;8068;51.322;9.450;2022-12-18T09:49:44;17.37;;;11.40;;
15938;SDS011;8068;51.322;9.450;2022-12-18T09:55:41;13.27;;;9.63;;
15938;SDS011;8068;51.322;9.450;2022-12-18T09:57:54;18.23;;;10.77;;
15938;SDS011;8068;51.322;9.450;2022-12-18T10:00:23;18.30;;;11.80;;
15938;SDS011;8068;51.322;9.450;2022-12-18T10:02:51;25.37;;;16.80;;
15938;SDS011;8068;51.322;9.450;2022-12-18T10:11:29;17.90;;;11.50;;
15938;SDS011;8068;51.322;9.450;2022-12-18T10:22:08;18.50;;;13.13;;
15938;SDS011;8068;51.322;9.450;2022-12-18T10:24:40;20.40;;;12.47;;
15938;SDS011;8068;51.322;9.450;2022-12-18T10:27:12;23.17;;;13.57;;
15938;SDS011;8068;51.322;9.450;2022-12-18T10:29:42;21.00;;;13.93;;
15938;SDS011;8068;51.322;9.450;2022-12-18T10:32:12;19.53;;;13.00;;
15938;SDS011;8068;51.322;9.450;2022-12-18T10:34:40;24.27;;;12.97;;
15938;SDS011;8068;51.322;9.450;2022-12-18T10:37:06;15.07;;;8.57;;
15938;SDS011;8068;51.322;9.450;2022-12-18T10:39:40;19.17;;;13.50;;
15938;SDS011;8068;51.322;9.450;2022-12-18T10:42:17;20.87;;;13.97;;
15938;SDS011;8068;51.322;9.450;2022-12-18T10:44:44;19.47;;;13.07;;
15938;SDS011;8068;51.322;9.450;2022-12-18T10:47:12;20.60;;;13.97;;
15938;SDS011;8068;51.322;9.450;2022-12-18T10:49:50;21.50;;;13.50;;
15938;SDS011;8068;51.322;9.450;2022-12-18T10:52:21;18.57;;;12.00;;
15938;SDS011;8068;51.322;9.450;2022-12-18T10:54:49;18.63;;;12.03;;
15938;SDS011;8068;51.322;9.450;2022-12-18T10:57:29;26.37;;;14.10;;
15938;SDS011;8068;51.322;9.450;2022-12-18T11:00:03;23.30;;;13.33;;
15938;SDS011;8068;51.322;9.450;2022-12-18T11:02:46;19.70;;;13.70;;
15938;SDS011;8068;51.322;9.450;2022-12-18T11:05:23;22.17;;;14.00;;
15938;SDS011;8068;51.322;9.450;2022-12-18T11:07:50;17.90;;;12.70;;
15938;SDS011;8068;51.322;9.450;2022-12-18T11:10:17;18.37;;;12.77;;
15938;SDS011;8068;51.322;9.450;2022-12-18T11:12:44;20.97;;;12.37;;
15938;SDS011;8068;51.322;9.450;2022-12-18T11:15:18;21.33;;;12.60;;
15938;SDS011;8068;51.322;9.450;2022-12-18T11:17:47;20.60;;;13.30;;
15938;SDS011;8068;51.322;9.450;2022-12-18T11:23:04;19.43;;;11.63;;
15938;SDS011;8068;51.322;9.450;2022-12-18T11:25:31;23.47;;;13.03;;
15938;SDS011;8068;51.322;9.450;2022-12-18T11:30:34;22.53;;;13.13;;
15938;SDS011;8068;51.322;9.450;2022-12-18T11:33:06;16.80;;;11.70;;
15938;SDS011;8068;51.322;9.450;2022-12-18T11:38:25;17.50;;;12.03;;
15938;SDS011;8068;51.322;9.450;2022-12-18T11:43:27;18.23;;;11.77;;
15938;SDS011;8068;51.322;9.450;2022-12-18T11:46:02;15.43;;;11.87;;
15938;SDS011;8068;51.322;9.450;2022-12-18T11:48:39;19.80;;;12.80;;
15938;SDS011;8068;51.322;9.450;2022-12-18T11:51:11;20.70;;;13.10;;
15938;SDS011;8068;51.322;9.450;2022-12-18T11:53:51;23.23;;;12.47;;
15938;SDS011;8068;51.322;9.450;2022-12-18T11:56:32;19.60;;;12.83;;
15938;SDS011;8068;51.322;9.450;2022-12-18T12:01:54;18.30;;;12.70;;
15938;SDS011;8068;51.322;9.450;2022-12-18T12:10:14;22.10;;;13.20;;
15938;SDS011;8068;51.322;9.450;2022-12-18T12:12:55;22.33;;;13.23;;
15938;SDS011;8068;51.322;9.450;2022-12-18T12:18:29;21.37;;;13.20;;
15938;SDS011;8068;51.322;9.450;2022-12-18T12:26:39;21.17;;;13.03;;
15938;SDS011;8068;51.322;9.450;2022-12-18T12:29:26;17.37;;;11.93;;
15938;SDS011;8068;51.322;9.450;2022-12-18T12:34:51;25.10;;;13.50;;
15938;SDS011;8068;51.322;9.450;2022-12-18T12:40:44;19.20;;;12.80;;
15938;SDS011;8068;51.322;9.450;2022-12-18T12:46:16;19.67;;;12.10;;
15938;SDS011;8068;51.322;9.450;2022-12-18T12:51:30;20.40;;;12.90;;
15938;SDS011;8068;51.322;9.450;2022-12-18T12:54:00;17.97;;;12.17;;
15938;SDS011;8068;51.322;9.450;2022-12-18T12:59:40;19.83;;;13.17;;
15938;SDS011;8068;51.322;9.450;2022-12-18T13:02:09;18.20;;;12.07;;
15938;SDS011;8068;51.322;9.450;2022-12-18T13:04:42;15.90;;;12.03;;
15938;SDS011;8068;51.322;9.450;2022-12-18T13:07:15;16.60;;;11.53;;
15938;SDS011;8068;51.322;9.450;2022-12-18T13:12:51;22.80;;;13.40;;
15938;SDS011;8068;51.322;9.450;2022-12-18T13:15:41;16.50;;;11.47;;
15938;SDS011;8068;51.322;9.450;2022-12-18T13:20:36;18.23;;;12.10;;
15938;SDS011;8068;51.322;9.450;2022-12-18T13:25:47;21.23;;;13.43;;
15938;SDS011;8068;51.322;9.450;2022-12-18T13:28:13;28.27;;;14.93;;
15938;SDS011;8068;51.322;9.450;2022-12-18T13:30:41;20.17;;;14.55;;
15938;SDS011;8068;51.322;9.450;2022-12-18T13:36:28;24.90;;;12.60;;
15938;SDS011;8068;51.322;9.450;2022-12-18T13:39:20;19.33;;;11.47;;
15938;SDS011;8068;51.322;9.450;2022-12-18T13:47:52;15.43;;;11.20;;
15938;SDS011;8068;51.322;9.450;2022-12-18T13:50:02;19.40;;;11.40;;
15938;SDS011;8068;51.322;9.450;2022-12-18T13:52:36;15.47;;;11.07;;
15938;SDS011;8068;51.322;9.450;2022-12-18T13:55:05;20.00;;;11.70;;
15938;SDS011;8068;51.322;9.450;2022-12-18T13:57:35;17.03;;;11.60;;
15938;SDS011;8068;51.322;9.450;2022-12-18T14:02:49;21.87;;;12.67;;
15938;SDS011;8068;51.322;9.450;2022-12-18T14:07:48;17.73;;;11.48;;
15938;SDS011;8068;51.322;9.450;2022-12-18T14:10:18;17.83;;;11.13;;
15938;SDS011;8068;51.322;9.450;2022-12-18T14:13:05;15.37;;;10.90;;
15938;SDS011;8068;51.322;9.450;2022-12-18T14:15:34;19.40;;;11.53;;
15938;SDS011;8068;51.322;9.450;2022-12-18T14:18:19;16.70;;;11.03;;
15938;SDS011;8068;51.322;9.450;2022-12-18T14:20:46;15.87;;;11.23;;
15938;SDS011;8068;51.322;9.450;2022-12-18T14:25:57;18.47;;;12.90;;
15938;SDS011;8068;51.322;9.450;2022-12-18T14:28:31;19.33;;;11.40;;
15938;SDS011;8068;51.322;9.450;2022-12-18T14:30:57;22.20;;;15.90;;
15938;SDS011;8068;51.322;9.450;2022-12-18T14:33:24;18.40;;;13.33;;
15938;SDS011;8068;51.322;9.450;2022-12-18T14:36:02;15.60;;;10.63;;
15938;SDS011;8068;51.322;9.450;2022-12-18T14:38:36;12.80;;;9.50;;
15938;SDS011;8068;51.322;9.450;2022-12-18T14:41:04;9.40;;;7.40;;
15938;SDS011;8068;51.322;9.450;2022-12-18T14:43:45;7.37;;;6.77;;
15938;SDS011;8068;51.322;9.450;2022-12-18T14:46:27;10.87;;;6.90;;
15938;SDS011;8068;51.322;9.450;2022-12-18T14:48:54;7.30;;;6.60;;
15938;SDS011;8068;51.322;9.450;2022-12-18T14:51:22;8.40;;;6.87;;
15938;SDS011;8068;51.322;9.450;2022-12-18T14:53:56;9.67;;;7.83;;
15938;SDS011;8068;51.322;9.450;2022-12-18T14:56:25;7.63;;;6.93;;
15938;SDS011;8068;51.322;9.450;2022-12-18T14:58:54;9.93;;;6.97;;
15938;SDS011;8068;51.322;9.450;2022-12-18T15:01:23;9.07;;;6.87;;
15938;SDS011;8068;51.322;9.450;2022-12-18T15:03:52;7.50;;;6.80;;
15938;SDS011;8068;51.322;9.450;2022-12-18T15:06:24;9.43;;;6.93;;
15938;SDS011;8068;51.322;9.450;2022-12-18T15:08:52;9.77;;;7.20;;
15938;SDS011;8068;51.322;9.450;2022-12-18T15:17:20;8.13;;;5.83;;
15938;SDS011;8068;51.322;9.450;2022-12-18T15:19:50;9.20;;;8.10;;
15938;SDS011;8068;51.322;9.450;2022-12-18T15:22:22;10.03;;;7.07;;
15938;SDS011;8068;51.322;9.450;2022-12-18T15:24:51;10.00;;;7.30;;
15938;SDS011;8068;51.322;9.450;2022-12-18T15:27:25;8.33;;;7.40;;
15938;SDS011;8068;51.322;9.450;2022-12-18T15:32:37;10.00;;;7.20;;
15938;SDS011;8068;51.322;9.450;2022-12-18T15:37:34;11.70;;;7.80;;
15938;SDS011;8068;51.322;9.450;2022-12-18T15:40:00;9.77;;;7.80;;
15938;SDS011;8068;51.322;9.450;2022-12-18T15:42:28;15.17;;;9.10;;
15938;SDS011;8068;51.322;9.450;2022-12-18T15:45:14;10.53;;;8.00;;
15938;SDS011;8068;51.322;9.450;2022-12-18T15:47:40;13.83;;;9.20;;
15938;SDS011;8068;51.322;9.450;2022-12-18T15:50:09;13.33;;;9.10;;
15938;SDS011;8068;51.322;9.450;2022-12-18T15:52:40;11.20;;;8.47;;
15938;SDS011;8068;51.322;9.450;2022-12-18T15:55:14;9.60;;;7.50;;
15938;SDS011;8068;51.322;9.450;2022-12-18T15:58:04;11.87;;;8.10;;
15938;SDS011;8068;51.322;9.450;2022-12-18T16:00:31;18.07;;;11.30;;
15938;SDS011;8068;51.322;9.450;2022-12-18T16:02:58;27.87;;;15.10;;
15938;SDS011;8068;51.322;9.450;2022-12-18T16:05:25;21.47;;;11.47;;
15938;SDS011;8068;51.322;9.450;2022-12-18T16:07:52;26.93;;;13.97;;
15938;SDS011;8068;51.322;9.450;2022-12-18T16:10:18;14.30;;;9.93;;
15938;SDS011;8068;51.322;9.450;2022-12-18T16:12:44;12.80;;;9.57;;
15938;SDS011;8068;51.322;9.450;2022-12-18T16:15:11;14.50;;;9.53;;
15938;SDS011;8068;51.322;9.450;2022-12-18T16:17:39;13.07;;;8.17;;
15938;SDS011;8068;51.322;9.450;2022-12-18T16:20:08;14.27;;;9.77;;
15938;SDS011;8068;51.322;9.450;2022-12-18T16:22:39;14.50;;;9.77;;
15938;SDS011;8068;51.322;9.450;2022-12-18T16:25:05;15.23;;;9.73;;
15938;SDS011;8068;51.322;9.450;2022-12-18T16:27:31;10.87;;;8.67;;
15938;SDS011;8068;51.322;9.450;2022-12-18T16:29:58;12.30;;;9.70;;
15938;SDS011;8068;51.322;9.450;2022-12-18T16:32:24;14.40;;;9.80;;
15938;SDS011;8068;51.322;9.450;2022-12-18T16:34:50;13.27;;;10.00;;
15938;SDS011;8068;51.322;9.450;2022-12-18T16:37:16;11.30;;;8.10;;
15938;SDS011;8068;51.322;9.450;2022-12-18T16:39:42;15.20;;;10.27;;
15938;SDS011;8068;51.322;9.450;2022-12-18T16:42:12;13.57;;;9.70;;
15938;SDS011;8068;51.322;9.450;2022-12-18T16:44:42;17.23;;;10.60;;
15938;SDS011;8068;51.322;9.450;2022-12-18T16:47:08;17.40;;;11.30;;